sensor_id;sensor_type;location;lat;lon;timestamp;temperature;humidity
74458;SHT31;62896;51.032;3.712;2022-11-06T00:01:54;10.8;86
74458;SHT31;62896;51.032;3.712;2022-11-06T00:05:14;10.8;86
74458;SHT31;62896;51.032;3.712;2022-11-06T00:08:35;10.8;86
74458;SHT31;62896;51.032;3.712;2022-11-06T00:11:54;10.8;86
74458;SHT31;62896;51.032;3.712;2022-11-06T00:15:14;10.8;86
74458;SHT31;62896;51.032;3.712;2022-11-06T00:18:34;10.9;85
74458;SHT31;62896;51.032;3.712;2022-11-06T00:21:54;10.9;85
74458;SHT31;62896;51.032;3.712;2022-11-06T00:25:14;10.9;85
74458;SHT31;62896;51.032;3.712;2022-11-06T00:28:34;10.9;85
74458;SHT31;62896;51.032;3.712;2022-11-06T00:31:54;10.9;85
74458;SHT31;62896;51.032;3.712;2022-11-06T00:35:14;10.9;85
74458;SHT31;62896;51.032;3.712;2022-11-06T00:38:34;11;85
74458;SHT31;62896;51.032;3.712;2022-11-06T00:41:54;11;85
74458;SHT31;62896;51.032;3.712;2022-11-06T00:45:14;11;85
74458;SHT31;62896;51.032;3.712;2022-11-06T00:48:34;11;85
74458;SHT31;62896;51.032;3.712;2022-11-06T00:51:54;11;85
74458;SHT31;62896;51.032;3.712;2022-11-06T00:55:14;11;85
74458;SHT31;62896;51.032;3.712;2022-11-06T00:58:34;11;86
74458;SHT31;62896;51.032;3.712;2022-11-06T01:01:54;11;86
74458;SHT31;62896;51.032;3.712;2022-11-06T01:05:14;11;86
74458;SHT31;62896;51.032;3.712;2022-11-06T01:08:34;11;86
74458;SHT31;62896;51.032;3.712;2022-11-06T01:11:55;11;86
74458;SHT31;62896;51.032;3.712;2022-11-06T01:15:14;11;86
74458;SHT31;62896;51.032;3.712;2022-11-06T01:18:34;10.9;87
74458;SHT31;62896;51.032;3.712;2022-11-06T01:21:54;10.9;87
74458;SHT31;62896;51.032;3.712;2022-11-06T01:25:14;10.9;87
74458;SHT31;62896;51.032;3.712;2022-11-06T01:28:34;10.8;89
74458;SHT31;62896;51.032;3.712;2022-11-06T01:31:54;10.8;89
74458;SHT31;62896;51.032;3.712;2022-11-06T01:35:14;10.8;89
74458;SHT31;62896;51.032;3.712;2022-11-06T01:38:34;10.8;89
74458;SHT31;62896;51.032;3.712;2022-11-06T01:41:54;10.8;89
74458;SHT31;62896;51.032;3.712;2022-11-06T01:45:30;10.8;89
74458;SHT31;62896;51.032;3.712;2022-11-06T01:48:34;10.8;88
74458;SHT31;62896;51.032;3.712;2022-11-06T01:51:55;10.8;88
74458;SHT31;62896;51.032;3.712;2022-11-06T01:55:15;10.8;88
74458;SHT31;62896;51.032;3.712;2022-11-06T01:58:35;10.9;88
74458;SHT31;62896;51.032;3.712;2022-11-06T02:01:54;10.9;88
74458;SHT31;62896;51.032;3.712;2022-11-06T02:05:14;10.9;88
74458;SHT31;62896;51.032;3.712;2022-11-06T02:08:34;10.9;88
74458;SHT31;62896;51.032;3.712;2022-11-06T02:11:56;10.9;88
74458;SHT31;62896;51.032;3.712;2022-11-06T02:15:16;10.9;88
74458;SHT31;62896;51.032;3.712;2022-11-06T02:18:39;10.7;90
74458;SHT31;62896;51.032;3.712;2022-11-06T02:22:13;10.7;90
74458;SHT31;62896;51.032;3.712;2022-11-06T02:25:15;10.7;90
74458;SHT31;62896;51.032;3.712;2022-11-06T02:28:35;10.7;90
74458;SHT31;62896;51.032;3.712;2022-11-06T02:31:55;10.7;90
74458;SHT31;62896;51.032;3.712;2022-11-06T02:35:17;10.7;90
74458;SHT31;62896;51.032;3.712;2022-11-06T02:38:36;10.7;91
74458;SHT31;62896;51.032;3.712;2022-11-06T02:41:55;10.7;91
74458;SHT31;62896;51.032;3.712;2022-11-06T02:45:14;10.7;91
74458;SHT31;62896;51.032;3.712;2022-11-06T02:48:36;10.6;91
74458;SHT31;62896;51.032;3.712;2022-11-06T02:51:55;10.6;91
74458;SHT31;62896;51.032;3.712;2022-11-06T02:55:16;10.6;91
74458;SHT31;62896;51.032;3.712;2022-11-06T02:58:34;10.6;91
74458;SHT31;62896;51.032;3.712;2022-11-06T03:01:54;10.6;91
74458;SHT31;62896;51.032;3.712;2022-11-06T03:05:15;10.6;91
74458;SHT31;62896;51.032;3.712;2022-11-06T03:08:35;10.7;91
74458;SHT31;62896;51.032;3.712;2022-11-06T03:11:56;10.7;91
74458;SHT31;62896;51.032;3.712;2022-11-06T03:15:16;10.7;91
74458;SHT31;62896;51.032;3.712;2022-11-06T03:18:35;10.7;90
74458;SHT31;62896;51.032;3.712;2022-11-06T03:21:56;10.7;90
74458;SHT31;62896;51.032;3.712;2022-11-06T03:25:15;10.7;90
74458;SHT31;62896;51.032;3.712;2022-11-06T03:28:34;10.7;90
74458;SHT31;62896;51.032;3.712;2022-11-06T03:31:55;10.7;90
74458;SHT31;62896;51.032;3.712;2022-11-06T03:35:16;10.7;90
74458;SHT31;62896;51.032;3.712;2022-11-06T03:38:34;10.7;90
74458;SHT31;62896;51.032;3.712;2022-11-06T03:41:55;10.7;90
74458;SHT31;62896;51.032;3.712;2022-11-06T03:45:14;10.7;90
74458;SHT31;62896;51.032;3.712;2022-11-06T03:48:35;10.7;89
74458;SHT31;62896;51.032;3.712;2022-11-06T03:51:55;10.7;89
74458;SHT31;62896;51.032;3.712;2022-11-06T03:55:15;10.7;89
74458;SHT31;62896;51.032;3.712;2022-11-06T03:58:35;10.7;89
74458;SHT31;62896;51.032;3.712;2022-11-06T04:01:54;10.7;89
74458;SHT31;62896;51.032;3.712;2022-11-06T04:05:14;10.7;89
74458;SHT31;62896;51.032;3.712;2022-11-06T04:08:34;10.7;89
74458;SHT31;62896;51.032;3.712;2022-11-06T04:11:54;10.7;89
74458;SHT31;62896;51.032;3.712;2022-11-06T04:15:15;10.7;89
74458;SHT31;62896;51.032;3.712;2022-11-06T04:18:34;10.7;89
74458;SHT31;62896;51.032;3.712;2022-11-06T04:21:59;10.7;89
74458;SHT31;62896;51.032;3.712;2022-11-06T04:25:18;10.7;89
74458;SHT31;62896;51.032;3.712;2022-11-06T04:28:35;10.7;89
74458;SHT31;62896;51.032;3.712;2022-11-06T04:31:57;10.7;89
74458;SHT31;62896;51.032;3.712;2022-11-06T04:35:16;10.7;89
74458;SHT31;62896;51.032;3.712;2022-11-06T04:38:35;10.8;88
74458;SHT31;62896;51.032;3.712;2022-11-06T04:41:56;10.8;88
74458;SHT31;62896;51.032;3.712;2022-11-06T04:45:15;10.8;88
74458;SHT31;62896;51.032;3.712;2022-11-06T04:48:34;10.8;88
74458;SHT31;62896;51.032;3.712;2022-11-06T04:51:54;10.8;88
74458;SHT31;62896;51.032;3.712;2022-11-06T04:55:14;10.8;88
74458;SHT31;62896;51.032;3.712;2022-11-06T04:58:34;10.8;88
74458;SHT31;62896;51.032;3.712;2022-11-06T05:01:54;10.8;88
74458;SHT31;62896;51.032;3.712;2022-11-06T05:05:14;10.8;88
74458;SHT31;62896;51.032;3.712;2022-11-06T05:08:34;10.7;88
74458;SHT31;62896;51.032;3.712;2022-11-06T05:11:54;10.7;88
74458;SHT31;62896;51.032;3.712;2022-11-06T05:15:14;10.7;88
74458;SHT31;62896;51.032;3.712;2022-11-06T05:18:34;10.7;88
74458;SHT31;62896;51.032;3.712;2022-11-06T05:21:54;10.7;88
74458;SHT31;62896;51.032;3.712;2022-11-06T05:25:14;10.7;88
74458;SHT31;62896;51.032;3.712;2022-11-06T05:28:34;10.6;88
74458;SHT31;62896;51.032;3.712;2022-11-06T05:31:54;10.6;88
74458;SHT31;62896;51.032;3.712;2022-11-06T05:35:14;10.6;88
74458;SHT31;62896;51.032;3.712;2022-11-06T05:38:34;10.6;88
74458;SHT31;62896;51.032;3.712;2022-11-06T05:41:54;10.6;88
74458;SHT31;62896;51.032;3.712;2022-11-06T05:45:14;10.6;88
74458;SHT31;62896;51.032;3.712;2022-11-06T05:48:34;10.5;88
74458;SHT31;62896;51.032;3.712;2022-11-06T05:51:54;10.5;88
74458;SHT31;62896;51.032;3.712;2022-11-06T05:55:14;10.5;88
74458;SHT31;62896;51.032;3.712;2022-11-06T05:58:34;10.6;88
74458;SHT31;62896;51.032;3.712;2022-11-06T06:01:54;10.6;88
74458;SHT31;62896;51.032;3.712;2022-11-06T06:05:14;10.6;88
74458;SHT31;62896;51.032;3.712;2022-11-06T06:08:34;10.7;88
74458;SHT31;62896;51.032;3.712;2022-11-06T06:11:54;10.7;88
74458;SHT31;62896;51.032;3.712;2022-11-06T06:15:14;10.7;88
74458;SHT31;62896;51.032;3.712;2022-11-06T06:18:34;10.7;88
74458;SHT31;62896;51.032;3.712;2022-11-06T06:21:54;10.7;88
74458;SHT31;62896;51.032;3.712;2022-11-06T06:25:14;10.7;88
74458;SHT31;62896;51.032;3.712;2022-11-06T06:28:34;10.7;88
74458;SHT31;62896;51.032;3.712;2022-11-06T06:31:54;10.7;88
74458;SHT31;62896;51.032;3.712;2022-11-06T06:35:14;10.7;88
74458;SHT31;62896;51.032;3.712;2022-11-06T06:38:34;10.7;87
74458;SHT31;62896;51.032;3.712;2022-11-06T06:41:54;10.7;87
74458;SHT31;62896;51.032;3.712;2022-11-06T06:45:14;10.7;87
74458;SHT31;62896;51.032;3.712;2022-11-06T06:48:34;10.8;87
74458;SHT31;62896;51.032;3.712;2022-11-06T06:51:54;10.8;87
74458;SHT31;62896;51.032;3.712;2022-11-06T06:55:14;10.8;87
74458;SHT31;62896;51.032;3.712;2022-11-06T06:58:34;11;86
74458;SHT31;62896;51.032;3.712;2022-11-06T07:01:54;11;86
74458;SHT31;62896;51.032;3.712;2022-11-06T07:05:14;11;86
74458;SHT31;62896;51.032;3.712;2022-11-06T07:08:34;11.2;86
74458;SHT31;62896;51.032;3.712;2022-11-06T07:11:54;11.2;86
74458;SHT31;62896;51.032;3.712;2022-11-06T07:15:14;11.2;86
74458;SHT31;62896;51.032;3.712;2022-11-06T07:18:34;11.5;85
74458;SHT31;62896;51.032;3.712;2022-11-06T07:21:54;11.5;85
74458;SHT31;62896;51.032;3.712;2022-11-06T07:25:14;11.5;85
74458;SHT31;62896;51.032;3.712;2022-11-06T07:28:34;11.6;84
74458;SHT31;62896;51.032;3.712;2022-11-06T07:31:54;11.6;84
74458;SHT31;62896;51.032;3.712;2022-11-06T07:35:14;11.6;84
74458;SHT31;62896;51.032;3.712;2022-11-06T07:38:34;11.7;84
74458;SHT31;62896;51.032;3.712;2022-11-06T07:41:54;11.7;84
74458;SHT31;62896;51.032;3.712;2022-11-06T07:45:14;11.7;84
74458;SHT31;62896;51.032;3.712;2022-11-06T07:48:34;11.8;84
74458;SHT31;62896;51.032;3.712;2022-11-06T07:51:54;11.8;84
74458;SHT31;62896;51.032;3.712;2022-11-06T07:55:14;11.8;84
74458;SHT31;62896;51.032;3.712;2022-11-06T07:58:34;11.9;83
74458;SHT31;62896;51.032;3.712;2022-11-06T08:01:54;11.9;83
74458;SHT31;62896;51.032;3.712;2022-11-06T08:05:14;11.9;83
74458;SHT31;62896;51.032;3.712;2022-11-06T08:08:34;11.9;83
74458;SHT31;62896;51.032;3.712;2022-11-06T08:11:54;11.9;83
74458;SHT31;62896;51.032;3.712;2022-11-06T08:15:14;11.9;83
74458;SHT31;62896;51.032;3.712;2022-11-06T08:18:34;12;83
74458;SHT31;62896;51.032;3.712;2022-11-06T08:21:54;12;83
74458;SHT31;62896;51.032;3.712;2022-11-06T08:25:14;12;83
74458;SHT31;62896;51.032;3.712;2022-11-06T08:28:34;12.1;83
74458;SHT31;62896;51.032;3.712;2022-11-06T08:31:54;12.1;83
74458;SHT31;62896;51.032;3.712;2022-11-06T08:35:14;12.1;83
74458;SHT31;62896;51.032;3.712;2022-11-06T08:38:34;12.1;83
74458;SHT31;62896;51.032;3.712;2022-11-06T08:41:54;12.1;83
74458;SHT31;62896;51.032;3.712;2022-11-06T08:45:14;12.1;83
74458;SHT31;62896;51.032;3.712;2022-11-06T08:48:34;12.1;83
74458;SHT31;62896;51.032;3.712;2022-11-06T08:51:54;12.1;83
74458;SHT31;62896;51.032;3.712;2022-11-06T08:55:14;12.1;83
74458;SHT31;62896;51.032;3.712;2022-11-06T08:58:34;12.2;82
74458;SHT31;62896;51.032;3.712;2022-11-06T09:01:55;12.2;82
74458;SHT31;62896;51.032;3.712;2022-11-06T09:05:14;12.2;82
74458;SHT31;62896;51.032;3.712;2022-11-06T09:08:34;12.3;82
74458;SHT31;62896;51.032;3.712;2022-11-06T09:11:54;12.3;82
74458;SHT31;62896;51.032;3.712;2022-11-06T09:15:14;12.3;82
74458;SHT31;62896;51.032;3.712;2022-11-06T09:18:34;12.3;82
74458;SHT31;62896;51.032;3.712;2022-11-06T09:21:54;12.3;82
74458;SHT31;62896;51.032;3.712;2022-11-06T09:25:14;12.3;82
74458;SHT31;62896;51.032;3.712;2022-11-06T09:28:34;12.3;82
74458;SHT31;62896;51.032;3.712;2022-11-06T09:31:54;12.3;82
74458;SHT31;62896;51.032;3.712;2022-11-06T09:35:14;12.3;82
74458;SHT31;62896;51.032;3.712;2022-11-06T09:38:34;12.3;81
74458;SHT31;62896;51.032;3.712;2022-11-06T09:41:54;12.3;81
74458;SHT31;62896;51.032;3.712;2022-11-06T09:45:15;12.3;81
74458;SHT31;62896;51.032;3.712;2022-11-06T09:48:34;12.4;81
74458;SHT31;62896;51.032;3.712;2022-11-06T09:51:56;12.4;81
74458;SHT31;62896;51.032;3.712;2022-11-06T09:55:15;12.4;81
74458;SHT31;62896;51.032;3.712;2022-11-06T09:58:34;12.4;81
74458;SHT31;62896;51.032;3.712;2022-11-06T10:01:55;12.4;81
74458;SHT31;62896;51.032;3.712;2022-11-06T10:05:17;12.4;81
74458;SHT31;62896;51.032;3.712;2022-11-06T10:08:34;12.4;82
74458;SHT31;62896;51.032;3.712;2022-11-06T10:11:57;12.4;82
74458;SHT31;62896;51.032;3.712;2022-11-06T10:15:17;12.4;82
74458;SHT31;62896;51.032;3.712;2022-11-06T10:18:36;12.3;82
74458;SHT31;62896;51.032;3.712;2022-11-06T10:21:56;12.3;82
74458;SHT31;62896;51.032;3.712;2022-11-06T10:25:17;12.3;82
74458;SHT31;62896;51.032;3.712;2022-11-06T10:28:39;12.3;82
74458;SHT31;62896;51.032;3.712;2022-11-06T10:31:57;12.3;82
74458;SHT31;62896;51.032;3.712;2022-11-06T10:35:14;12.3;82
74458;SHT31;62896;51.032;3.712;2022-11-06T10:38:34;12.2;82
74458;SHT31;62896;51.032;3.712;2022-11-06T10:41:55;12.2;82
74458;SHT31;62896;51.032;3.712;2022-11-06T10:45:14;12.2;82
74458;SHT31;62896;51.032;3.712;2022-11-06T10:48:36;12.3;81
74458;SHT31;62896;51.032;3.712;2022-11-06T10:51:56;12.3;81
74458;SHT31;62896;51.032;3.712;2022-11-06T10:55:31;12.3;81
74458;SHT31;62896;51.032;3.712;2022-11-06T10:58:34;12.5;80
74458;SHT31;62896;51.032;3.712;2022-11-06T11:01:54;12.5;80
74458;SHT31;62896;51.032;3.712;2022-11-06T11:05:15;12.5;80
74458;SHT31;62896;51.032;3.712;2022-11-06T11:08:35;12.8;79
74458;SHT31;62896;51.032;3.712;2022-11-06T11:11:54;12.8;79
74458;SHT31;62896;51.032;3.712;2022-11-06T11:15:15;12.8;79
74458;SHT31;62896;51.032;3.712;2022-11-06T11:18:34;13;77
74458;SHT31;62896;51.032;3.712;2022-11-06T11:21:55;13;77
74458;SHT31;62896;51.032;3.712;2022-11-06T11:25:23;13;77
74458;SHT31;62896;51.032;3.712;2022-11-06T11:28:34;13;78
74458;SHT31;62896;51.032;3.712;2022-11-06T11:31:54;13;78
74458;SHT31;62896;51.032;3.712;2022-11-06T11:35:15;13;78
74458;SHT31;62896;51.032;3.712;2022-11-06T11:38:35;12.8;80
74458;SHT31;62896;51.032;3.712;2022-11-06T11:42:03;12.8;80
74458;SHT31;62896;51.032;3.712;2022-11-06T11:45:15;12.8;80
74458;SHT31;62896;51.032;3.712;2022-11-06T11:48:42;12.4;82
74458;SHT31;62896;51.032;3.712;2022-11-06T11:51:54;12.4;82
74458;SHT31;62896;51.032;3.712;2022-11-06T11:55:14;12.4;82
74458;SHT31;62896;51.032;3.712;2022-11-06T11:58:34;12.1;84
74458;SHT31;62896;51.032;3.712;2022-11-06T12:01:54;12.1;84
74458;SHT31;62896;51.032;3.712;2022-11-06T12:05:15;12.1;84
74458;SHT31;62896;51.032;3.712;2022-11-06T12:08:34;11.7;87
74458;SHT31;62896;51.032;3.712;2022-11-06T12:11:54;11.7;87
74458;SHT31;62896;51.032;3.712;2022-11-06T12:15:16;11.7;87
74458;SHT31;62896;51.032;3.712;2022-11-06T12:18:34;11.4;89
74458;SHT31;62896;51.032;3.712;2022-11-06T12:21:55;11.4;89
74458;SHT31;62896;51.032;3.712;2022-11-06T12:25:15;11.4;89
74458;SHT31;62896;51.032;3.712;2022-11-06T12:28:34;11;90
74458;SHT31;62896;51.032;3.712;2022-11-06T12:31:56;11;90
74458;SHT31;62896;51.032;3.712;2022-11-06T12:35:17;11;90
74458;SHT31;62896;51.032;3.712;2022-11-06T12:38:36;10.8;91
74458;SHT31;62896;51.032;3.712;2022-11-06T12:41:54;10.8;91
74458;SHT31;62896;51.032;3.712;2022-11-06T12:45:14;10.8;91
74458;SHT31;62896;51.032;3.712;2022-11-06T12:48:42;10.6;91
74458;SHT31;62896;51.032;3.712;2022-11-06T12:51:57;10.6;91
74458;SHT31;62896;51.032;3.712;2022-11-06T12:55:17;10.6;91
74458;SHT31;62896;51.032;3.712;2022-11-06T12:58:39;10.5;90
74458;SHT31;62896;51.032;3.712;2022-11-06T13:01:56;10.5;90
74458;SHT31;62896;51.032;3.712;2022-11-06T13:05:15;10.5;90
74458;SHT31;62896;51.032;3.712;2022-11-06T13:08:35;10.3;88
74458;SHT31;62896;51.032;3.712;2022-11-06T13:11:55;10.3;88
74458;SHT31;62896;51.032;3.712;2022-11-06T13:15:18;10.3;88
74458;SHT31;62896;51.032;3.712;2022-11-06T13:18:35;10.1;89
74458;SHT31;62896;51.032;3.712;2022-11-06T13:21:59;10.1;89
74458;SHT31;62896;51.032;3.712;2022-11-06T13:25:15;10.1;89
74458;SHT31;62896;51.032;3.712;2022-11-06T13:28:36;10;89
74458;SHT31;62896;51.032;3.712;2022-11-06T13:31:55;10;89
74458;SHT31;62896;51.032;3.712;2022-11-06T13:35:15;10;89
74458;SHT31;62896;51.032;3.712;2022-11-06T13:38:35;10;90
74458;SHT31;62896;51.032;3.712;2022-11-06T13:41:54;10;90
74458;SHT31;62896;51.032;3.712;2022-11-06T13:45:14;10;90
74458;SHT31;62896;51.032;3.712;2022-11-06T13:48:36;9.9;91
74458;SHT31;62896;51.032;3.712;2022-11-06T13:51:55;9.9;91
74458;SHT31;62896;51.032;3.712;2022-11-06T13:55:15;9.9;91
74458;SHT31;62896;51.032;3.712;2022-11-06T13:58:46;9.8;91
74458;SHT31;62896;51.032;3.712;2022-11-06T14:01:56;9.8;91
74458;SHT31;62896;51.032;3.712;2022-11-06T14:05:20;9.8;91
74458;SHT31;62896;51.032;3.712;2022-11-06T14:08:37;9.8;91
74458;SHT31;62896;51.032;3.712;2022-11-06T14:11:55;9.8;91
74458;SHT31;62896;51.032;3.712;2022-11-06T14:15:15;9.8;91
74458;SHT31;62896;51.032;3.712;2022-11-06T14:18:34;9.6;92
74458;SHT31;62896;51.032;3.712;2022-11-06T14:21:54;9.6;92
74458;SHT31;62896;51.032;3.712;2022-11-06T14:25:55;9.6;92
74458;SHT31;62896;51.032;3.712;2022-11-06T14:28:36;9.5;92
74458;SHT31;62896;51.032;3.712;2022-11-06T14:31:57;9.5;92
74458;SHT31;62896;51.032;3.712;2022-11-06T14:35:46;9.5;92
74458;SHT31;62896;51.032;3.712;2022-11-06T14:38:35;9.4;93
74458;SHT31;62896;51.032;3.712;2022-11-06T14:41:55;9.4;93
74458;SHT31;62896;51.032;3.712;2022-11-06T14:45:14;9.4;93
74458;SHT31;62896;51.032;3.712;2022-11-06T14:48:35;9.4;93
74458;SHT31;62896;51.032;3.712;2022-11-06T14:51:56;9.4;93
74458;SHT31;62896;51.032;3.712;2022-11-06T14:55:20;9.4;93
74458;SHT31;62896;51.032;3.712;2022-11-06T14:58:35;9.4;93
74458;SHT31;62896;51.032;3.712;2022-11-06T15:01:54;9.4;93
74458;SHT31;62896;51.032;3.712;2022-11-06T15:05:15;9.4;93
74458;SHT31;62896;51.032;3.712;2022-11-06T15:09:06;9.4;93
74458;SHT31;62896;51.032;3.712;2022-11-06T15:11:56;9.4;93
74458;SHT31;62896;51.032;3.712;2022-11-06T15:15:15;9.4;93
74458;SHT31;62896;51.032;3.712;2022-11-06T15:18:34;9.4;93
74458;SHT31;62896;51.032;3.712;2022-11-06T15:21:55;9.4;93
74458;SHT31;62896;51.032;3.712;2022-11-06T15:25:18;9.4;93
74458;SHT31;62896;51.032;3.712;2022-11-06T15:28:38;9.3;93
74458;SHT31;62896;51.032;3.712;2022-11-06T15:31:56;9.3;93
74458;SHT31;62896;51.032;3.712;2022-11-06T15:35:14;9.3;93
74458;SHT31;62896;51.032;3.712;2022-11-06T15:38:36;9.3;93
74458;SHT31;62896;51.032;3.712;2022-11-06T15:41:54;9.3;93
74458;SHT31;62896;51.032;3.712;2022-11-06T15:45:19;9.3;93
74458;SHT31;62896;51.032;3.712;2022-11-06T15:48:34;9.3;93
74458;SHT31;62896;51.032;3.712;2022-11-06T15:51:55;9.3;93
74458;SHT31;62896;51.032;3.712;2022-11-06T15:55:14;9.3;93
74458;SHT31;62896;51.032;3.712;2022-11-06T15:58:35;9.3;93
74458;SHT31;62896;51.032;3.712;2022-11-06T16:01:54;9.3;93
74458;SHT31;62896;51.032;3.712;2022-11-06T16:05:14;9.3;93
74458;SHT31;62896;51.032;3.712;2022-11-06T16:08:34;9.4;92
74458;SHT31;62896;51.032;3.712;2022-11-06T16:11:54;9.4;92
74458;SHT31;62896;51.032;3.712;2022-11-06T16:15:47;9.4;92
74458;SHT31;62896;51.032;3.712;2022-11-06T16:18:37;9.5;92
74458;SHT31;62896;51.032;3.712;2022-11-06T16:21:55;9.5;92
74458;SHT31;62896;51.032;3.712;2022-11-06T16:25:15;9.5;92
74458;SHT31;62896;51.032;3.712;2022-11-06T16:28:34;9.4;92
74458;SHT31;62896;51.032;3.712;2022-11-06T16:31:58;9.4;92
74458;SHT31;62896;51.032;3.712;2022-11-06T16:35:28;9.4;92
74458;SHT31;62896;51.032;3.712;2022-11-06T16:38:42;9.5;92
74458;SHT31;62896;51.032;3.712;2022-11-06T16:41:58;9.5;92
74458;SHT31;62896;51.032;3.712;2022-11-06T16:45:15;9.5;92
74458;SHT31;62896;51.032;3.712;2022-11-06T16:48:35;9.6;91
74458;SHT31;62896;51.032;3.712;2022-11-06T16:51:54;9.6;91
74458;SHT31;62896;51.032;3.712;2022-11-06T16:55:20;9.6;91
74458;SHT31;62896;51.032;3.712;2022-11-06T16:58:39;9.6;92
74458;SHT31;62896;51.032;3.712;2022-11-06T17:01:54;9.6;92
74458;SHT31;62896;51.032;3.712;2022-11-06T17:05:14;9.6;92
74458;SHT31;62896;51.032;3.712;2022-11-06T17:08:35;9.6;91
74458;SHT31;62896;51.032;3.712;2022-11-06T17:11:55;9.6;91
74458;SHT31;62896;51.032;3.712;2022-11-06T17:15:14;9.6;91
74458;SHT31;62896;51.032;3.712;2022-11-06T17:18:35;9.6;92
74458;SHT31;62896;51.032;3.712;2022-11-06T17:21:54;9.6;92
74458;SHT31;62896;51.032;3.712;2022-11-06T17:25:14;9.6;92
74458;SHT31;62896;51.032;3.712;2022-11-06T17:28:34;9.7;92
74458;SHT31;62896;51.032;3.712;2022-11-06T17:31:54;9.7;92
74458;SHT31;62896;51.032;3.712;2022-11-06T17:35:14;9.7;92
74458;SHT31;62896;51.032;3.712;2022-11-06T17:38:34;9.7;92
74458;SHT31;62896;51.032;3.712;2022-11-06T17:41:54;9.7;92
74458;SHT31;62896;51.032;3.712;2022-11-06T17:45:14;9.7;92
74458;SHT31;62896;51.032;3.712;2022-11-06T17:48:34;9.8;92
74458;SHT31;62896;51.032;3.712;2022-11-06T17:51:54;9.8;92
74458;SHT31;62896;51.032;3.712;2022-11-06T17:55:14;9.8;92
74458;SHT31;62896;51.032;3.712;2022-11-06T17:58:34;9.9;92
74458;SHT31;62896;51.032;3.712;2022-11-06T18:01:54;9.9;92
74458;SHT31;62896;51.032;3.712;2022-11-06T18:05:14;9.9;92
74458;SHT31;62896;51.032;3.712;2022-11-06T18:08:34;9.9;92
74458;SHT31;62896;51.032;3.712;2022-11-06T18:11:54;9.9;92
74458;SHT31;62896;51.032;3.712;2022-11-06T18:15:14;9.9;92
74458;SHT31;62896;51.032;3.712;2022-11-06T18:18:34;10;92
74458;SHT31;62896;51.032;3.712;2022-11-06T18:21:54;10;92
74458;SHT31;62896;51.032;3.712;2022-11-06T18:25:14;10;92
74458;SHT31;62896;51.032;3.712;2022-11-06T18:28:34;10;93
74458;SHT31;62896;51.032;3.712;2022-11-06T18:31:54;10;93
74458;SHT31;62896;51.032;3.712;2022-11-06T18:35:14;10;93
74458;SHT31;62896;51.032;3.712;2022-11-06T18:38:34;10;93
74458;SHT31;62896;51.032;3.712;2022-11-06T18:41:56;10;93
74458;SHT31;62896;51.032;3.712;2022-11-06T18:45:14;10;93
74458;SHT31;62896;51.032;3.712;2022-11-06T18:48:34;10.2;93
74458;SHT31;62896;51.032;3.712;2022-11-06T18:51:54;10.2;93
74458;SHT31;62896;51.032;3.712;2022-11-06T18:55:14;10.2;93
74458;SHT31;62896;51.032;3.712;2022-11-06T18:58:34;10.3;93
74458;SHT31;62896;51.032;3.712;2022-11-06T19:01:54;10.3;93
74458;SHT31;62896;51.032;3.712;2022-11-06T19:05:14;10.3;93
74458;SHT31;62896;51.032;3.712;2022-11-06T19:08:34;10.4;92
74458;SHT31;62896;51.032;3.712;2022-11-06T19:11:54;10.4;92
74458;SHT31;62896;51.032;3.712;2022-11-06T19:15:14;10.4;92
74458;SHT31;62896;51.032;3.712;2022-11-06T19:18:34;10.6;92
74458;SHT31;62896;51.032;3.712;2022-11-06T19:21:54;10.6;92
74458;SHT31;62896;51.032;3.712;2022-11-06T19:25:14;10.6;92
74458;SHT31;62896;51.032;3.712;2022-11-06T19:28:34;10.7;92
74458;SHT31;62896;51.032;3.712;2022-11-06T19:31:54;10.7;92
74458;SHT31;62896;51.032;3.712;2022-11-06T19:35:14;10.7;92
74458;SHT31;62896;51.032;3.712;2022-11-06T19:38:34;10.6;92
74458;SHT31;62896;51.032;3.712;2022-11-06T19:41:54;10.6;92
74458;SHT31;62896;51.032;3.712;2022-11-06T19:45:14;10.6;92
74458;SHT31;62896;51.032;3.712;2022-11-06T19:48:34;10.6;93
74458;SHT31;62896;51.032;3.712;2022-11-06T19:51:54;10.6;93
74458;SHT31;62896;51.032;3.712;2022-11-06T19:55:14;10.6;93
74458;SHT31;62896;51.032;3.712;2022-11-06T19:58:34;10.7;93
74458;SHT31;62896;51.032;3.712;2022-11-06T20:01:54;10.7;93
74458;SHT31;62896;51.032;3.712;2022-11-06T20:05:14;10.7;93
74458;SHT31;62896;51.032;3.712;2022-11-06T20:08:34;10.7;93
74458;SHT31;62896;51.032;3.712;2022-11-06T20:11:54;10.7;93
74458;SHT31;62896;51.032;3.712;2022-11-06T20:15:14;10.7;93
74458;SHT31;62896;51.032;3.712;2022-11-06T20:18:34;10.7;93
74458;SHT31;62896;51.032;3.712;2022-11-06T20:21:54;10.7;93
74458;SHT31;62896;51.032;3.712;2022-11-06T20:25:14;10.7;93
74458;SHT31;62896;51.032;3.712;2022-11-06T20:28:34;10.7;93
74458;SHT31;62896;51.032;3.712;2022-11-06T20:31:54;10.7;93
74458;SHT31;62896;51.032;3.712;2022-11-06T20:35:14;10.7;93
74458;SHT31;62896;51.032;3.712;2022-11-06T20:38:34;10.8;93
74458;SHT31;62896;51.032;3.712;2022-11-06T20:41:54;10.8;93
74458;SHT31;62896;51.032;3.712;2022-11-06T20:45:14;10.8;93
74458;SHT31;62896;51.032;3.712;2022-11-06T20:48:34;10.8;93
74458;SHT31;62896;51.032;3.712;2022-11-06T20:51:54;10.8;93
74458;SHT31;62896;51.032;3.712;2022-11-06T20:55:14;10.8;93
74458;SHT31;62896;51.032;3.712;2022-11-06T20:58:34;11;93
74458;SHT31;62896;51.032;3.712;2022-11-06T21:01:54;11;93
74458;SHT31;62896;51.032;3.712;2022-11-06T21:05:14;11;93
74458;SHT31;62896;51.032;3.712;2022-11-06T21:08:34;11;93
74458;SHT31;62896;51.032;3.712;2022-11-06T21:11:54;11;93
74458;SHT31;62896;51.032;3.712;2022-11-06T21:15:14;11;93
74458;SHT31;62896;51.032;3.712;2022-11-06T21:18:34;11.1;93
74458;SHT31;62896;51.032;3.712;2022-11-06T21:21:54;11.1;93
74458;SHT31;62896;51.032;3.712;2022-11-06T21:25:14;11.1;93
74458;SHT31;62896;51.032;3.712;2022-11-06T21:28:34;11.1;93
74458;SHT31;62896;51.032;3.712;2022-11-06T21:31:54;11.1;93
74458;SHT31;62896;51.032;3.712;2022-11-06T21:35:14;11.1;93
74458;SHT31;62896;51.032;3.712;2022-11-06T21:38:34;11;93
74458;SHT31;62896;51.032;3.712;2022-11-06T21:41:54;11;93
74458;SHT31;62896;51.032;3.712;2022-11-06T21:45:14;11;93
74458;SHT31;62896;51.032;3.712;2022-11-06T21:48:34;11.2;93
74458;SHT31;62896;51.032;3.712;2022-11-06T21:51:54;11.2;93
74458;SHT31;62896;51.032;3.712;2022-11-06T21:55:14;11.2;93
74458;SHT31;62896;51.032;3.712;2022-11-06T21:58:34;11.3;92
74458;SHT31;62896;51.032;3.712;2022-11-06T22:01:54;11.3;92
74458;SHT31;62896;51.032;3.712;2022-11-06T22:05:14;11.3;92
74458;SHT31;62896;51.032;3.712;2022-11-06T22:08:34;11.2;93
74458;SHT31;62896;51.032;3.712;2022-11-06T22:11:54;11.2;93
74458;SHT31;62896;51.032;3.712;2022-11-06T22:15:14;11.2;93
74458;SHT31;62896;51.032;3.712;2022-11-06T22:18:34;11.1;93
74458;SHT31;62896;51.032;3.712;2022-11-06T22:21:54;11.1;93
74458;SHT31;62896;51.032;3.712;2022-11-06T22:25:14;11.1;93
74458;SHT31;62896;51.032;3.712;2022-11-06T22:28:34;11.2;93
74458;SHT31;62896;51.032;3.712;2022-11-06T22:31:54;11.2;93
74458;SHT31;62896;51.032;3.712;2022-11-06T22:35:14;11.2;93
74458;SHT31;62896;51.032;3.712;2022-11-06T22:38:34;11.2;93